sensor_id;sensor_type;location;lat;lon;timestamp;P1;durP1;ratioP1;P2;durP2;ratioP2
38226;SDS011;24026;49.446;8.576;2022-12-05T13:53:04;156.52;;;140.60;;
38226;SDS011;24026;49.446;8.576;2022-12-05T13:55:53;157.32;;;141.63;;
38226;SDS011;24026;49.446;8.576;2022-12-05T14:00:42;155.97;;;140.37;;
38226;SDS011;24026;49.446;8.576;2022-12-05T14:03:05;158.20;;;142.63;;
38226;SDS011;24026;49.446;8.576;2022-12-05T14:05:37;157.32;;;141.52;;
38226;SDS011;24026;49.446;8.576;2022-12-05T14:08:01;156.02;;;140.55;;
38226;SDS011;24026;49.446;8.576;2022-12-05T14:15:37;171.75;;;154.02;;
38226;SDS011;24026;49.446;8.576;2022-12-05T14:18:14;165.00;;;148.05;;
38226;SDS011;24026;49.446;8.576;2022-12-05T14:23:31;163.93;;;147.23;;
38226;SDS011;24026;49.446;8.576;2022-12-05T14:26:13;162.95;;;145.70;;
38226;SDS011;24026;49.446;8.576;2022-12-05T14:28:59;171.85;;;153.63;;
38226;SDS011;24026;49.446;8.576;2022-12-05T14:36:33;267.83;;;172.30;;
38226;SDS011;24026;49.446;8.576;2022-12-05T14:38:54;183.50;;;162.93;;
38226;SDS011;24026;49.446;8.576;2022-12-05T14:41:16;185.65;;;165.27;;
38226;SDS011;24026;49.446;8.576;2022-12-05T14:43:50;179.02;;;159.80;;
38226;SDS011;24026;49.446;8.576;2022-12-05T14:46:20;197.45;;;164.50;;
38226;SDS011;24026;49.446;8.576;2022-12-05T14:48:43;194.27;;;164.77;;
38226;SDS011;24026;49.446;8.576;2022-12-05T14:53:51;203.73;;;159.75;;
38226;SDS011;24026;49.446;8.576;2022-12-05T14:56:18;192.55;;;162.60;;
38226;SDS011;24026;49.446;8.576;2022-12-05T15:01:31;188.70;;;153.10;;
38226;SDS011;24026;49.446;8.576;2022-12-05T15:06:24;181.20;;;145.65;;
38226;SDS011;24026;49.446;8.576;2022-12-05T15:08:48;172.98;;;146.10;;
38226;SDS011;24026;49.446;8.576;2022-12-05T15:11:18;177.10;;;147.18;;
38226;SDS011;24026;49.446;8.576;2022-12-05T15:13:48;171.07;;;146.55;;
38226;SDS011;24026;49.446;8.576;2022-12-05T15:16:13;172.32;;;149.93;;
38226;SDS011;24026;49.446;8.576;2022-12-05T15:18:39;163.88;;;145.00;;
38226;SDS011;24026;49.446;8.576;2022-12-05T15:21:30;167.88;;;149.20;;
38226;SDS011;24026;49.446;8.576;2022-12-05T15:23:56;172.18;;;148.75;;
38226;SDS011;24026;49.446;8.576;2022-12-05T15:31:28;167.40;;;144.55;;
38226;SDS011;24026;49.446;8.576;2022-12-05T15:33:51;165.50;;;142.82;;
38226;SDS011;24026;49.446;8.576;2022-12-05T15:36:15;160.80;;;142.93;;
38226;SDS011;24026;49.446;8.576;2022-12-05T15:38:38;165.93;;;141.40;;
38226;SDS011;24026;49.446;8.576;2022-12-05T15:40:58;162.63;;;142.10;;
38226;SDS011;24026;49.446;8.576;2022-12-05T15:45:50;163.05;;;138.90;;
38226;SDS011;24026;49.446;8.576;2022-12-05T15:48:11;155.95;;;135.10;;
38226;SDS011;24026;49.446;8.576;2022-12-05T15:50:35;154.55;;;133.68;;
38226;SDS011;24026;49.446;8.576;2022-12-05T15:55:38;154.52;;;132.90;;
38226;SDS011;24026;49.446;8.576;2022-12-05T16:00:44;165.18;;;133.80;;
38226;SDS011;24026;49.446;8.576;2022-12-05T16:03:13;159.48;;;134.77;;
38226;SDS011;24026;49.446;8.576;2022-12-05T16:06:00;150.57;;;130.88;;
38226;SDS011;24026;49.446;8.576;2022-12-05T16:10:54;155.45;;;131.45;;
38226;SDS011;24026;49.446;8.576;2022-12-05T16:13:15;154.80;;;131.43;;
38226;SDS011;24026;49.446;8.576;2022-12-05T16:15:40;156.48;;;132.20;;
38226;SDS011;24026;49.446;8.576;2022-12-05T16:18:05;149.25;;;131.15;;
38226;SDS011;24026;49.446;8.576;2022-12-05T16:22:46;150.80;;;131.40;;
38226;SDS011;24026;49.446;8.576;2022-12-05T16:25:13;150.55;;;131.93;;
38226;SDS011;24026;49.446;8.576;2022-12-05T16:27:35;145.93;;;129.13;;
38226;SDS011;24026;49.446;8.576;2022-12-05T16:30:08;146.45;;;130.32;;
38226;SDS011;24026;49.446;8.576;2022-12-05T16:32:31;150.98;;;130.02;;
38226;SDS011;24026;49.446;8.576;2022-12-05T16:34:54;154.70;;;131.20;;
38226;SDS011;24026;49.446;8.576;2022-12-05T16:37:22;160.88;;;131.10;;
38226;SDS011;24026;49.446;8.576;2022-12-05T16:39:45;152.75;;;131.68;;
38226;SDS011;24026;49.446;8.576;2022-12-05T16:42:16;147.05;;;130.90;;
38226;SDS011;24026;49.446;8.576;2022-12-05T16:47:06;151.60;;;129.80;;
38226;SDS011;24026;49.446;8.576;2022-12-05T16:49:42;150.55;;;128.93;;
38226;SDS011;24026;49.446;8.576;2022-12-05T16:54:28;143.63;;;127.00;;
38226;SDS011;24026;49.446;8.576;2022-12-05T16:56:49;145.77;;;127.53;;
38226;SDS011;24026;49.446;8.576;2022-12-05T16:59:13;144.77;;;126.60;;
38226;SDS011;24026;49.446;8.576;2022-12-05T17:01:43;146.10;;;126.65;;
38226;SDS011;24026;49.446;8.576;2022-12-05T17:04:03;141.95;;;125.32;;
38226;SDS011;24026;49.446;8.576;2022-12-05T17:06:24;143.55;;;124.78;;
38226;SDS011;24026;49.446;8.576;2022-12-05T17:08:45;148.55;;;127.05;;
38226;SDS011;24026;49.446;8.576;2022-12-05T17:11:13;141.35;;;125.68;;
38226;SDS011;24026;49.446;8.576;2022-12-05T17:13:38;141.15;;;123.53;;
38226;SDS011;24026;49.446;8.576;2022-12-05T17:15:58;138.55;;;123.30;;
38226;SDS011;24026;49.446;8.576;2022-12-05T17:18:19;138.55;;;123.43;;
38226;SDS011;24026;49.446;8.576;2022-12-05T17:20:41;138.63;;;123.38;;
38226;SDS011;24026;49.446;8.576;2022-12-05T17:23:10;137.77;;;122.75;;
38226;SDS011;24026;49.446;8.576;2022-12-05T17:25:33;138.18;;;122.53;;
38226;SDS011;24026;49.446;8.576;2022-12-05T17:27:56;140.07;;;124.47;;
38226;SDS011;24026;49.446;8.576;2022-12-05T17:30:17;141.95;;;123.03;;
38226;SDS011;24026;49.446;8.576;2022-12-05T17:32:38;137.35;;;122.53;;
38226;SDS011;24026;49.446;8.576;2022-12-05T17:34:58;138.43;;;123.38;;
38226;SDS011;24026;49.446;8.576;2022-12-05T17:37:18;141.07;;;123.85;;
38226;SDS011;24026;49.446;8.576;2022-12-05T17:39:39;138.65;;;123.20;;
38226;SDS011;24026;49.446;8.576;2022-12-05T17:41:59;140.38;;;122.80;;
38226;SDS011;24026;49.446;8.576;2022-12-05T17:44:19;138.88;;;123.60;;
38226;SDS011;24026;49.446;8.576;2022-12-05T17:46:41;137.18;;;122.30;;
38226;SDS011;24026;49.446;8.576;2022-12-05T17:49:02;136.75;;;121.88;;
38226;SDS011;24026;49.446;8.576;2022-12-05T17:51:22;138.48;;;122.28;;
38226;SDS011;24026;49.446;8.576;2022-12-05T17:53:43;136.40;;;121.38;;
38226;SDS011;24026;49.446;8.576;2022-12-05T17:56:04;136.77;;;121.72;;
38226;SDS011;24026;49.446;8.576;2022-12-05T17:58:25;135.15;;;120.38;;
38226;SDS011;24026;49.446;8.576;2022-12-05T18:00:46;136.55;;;121.65;;
38226;SDS011;24026;49.446;8.576;2022-12-05T18:03:10;134.63;;;120.13;;
38226;SDS011;24026;49.446;8.576;2022-12-05T18:05:32;135.75;;;120.63;;
38226;SDS011;24026;49.446;8.576;2022-12-05T18:07:52;134.90;;;119.90;;
38226;SDS011;24026;49.446;8.576;2022-12-05T18:10:14;136.65;;;121.85;;
38226;SDS011;24026;49.446;8.576;2022-12-05T18:12:37;135.02;;;120.57;;
38226;SDS011;24026;49.446;8.576;2022-12-05T18:14:57;136.65;;;121.95;;
38226;SDS011;24026;49.446;8.576;2022-12-05T18:17:18;137.55;;;122.72;;
38226;SDS011;24026;49.446;8.576;2022-12-05T18:19:39;136.02;;;121.40;;
38226;SDS011;24026;49.446;8.576;2022-12-05T18:21:59;136.07;;;121.43;;
38226;SDS011;24026;49.446;8.576;2022-12-05T18:24:20;139.07;;;121.47;;
38226;SDS011;24026;49.446;8.576;2022-12-05T18:26:40;135.80;;;120.95;;
38226;SDS011;24026;49.446;8.576;2022-12-05T18:29:00;135.10;;;120.35;;
38226;SDS011;24026;49.446;8.576;2022-12-05T18:31:21;133.32;;;119.03;;
38226;SDS011;24026;49.446;8.576;2022-12-05T18:33:42;134.27;;;119.93;;
38226;SDS011;24026;49.446;8.576;2022-12-05T18:36:07;134.98;;;120.25;;
38226;SDS011;24026;49.446;8.576;2022-12-05T18:38:30;133.65;;;118.95;;
38226;SDS011;24026;49.446;8.576;2022-12-05T18:40:57;132.75;;;118.35;;
38226;SDS011;24026;49.446;8.576;2022-12-05T18:43:18;132.65;;;118.13;;
38226;SDS011;24026;49.446;8.576;2022-12-05T18:45:38;133.10;;;118.80;;
38226;SDS011;24026;49.446;8.576;2022-12-05T18:47:58;133.25;;;118.95;;
38226;SDS011;24026;49.446;8.576;2022-12-05T18:50:19;131.35;;;117.10;;
38226;SDS011;24026;49.446;8.576;2022-12-05T18:52:39;132.10;;;117.95;;
38226;SDS011;24026;49.446;8.576;2022-12-05T18:55:01;135.18;;;120.57;;
38226;SDS011;24026;49.446;8.576;2022-12-05T18:57:21;134.25;;;119.55;;
38226;SDS011;24026;49.446;8.576;2022-12-05T18:59:43;134.38;;;119.97;;
38226;SDS011;24026;49.446;8.576;2022-12-05T19:02:04;132.10;;;117.90;;
38226;SDS011;24026;49.446;8.576;2022-12-05T19:04:25;131.55;;;117.22;;
38226;SDS011;24026;49.446;8.576;2022-12-05T19:06:55;132.27;;;117.97;;
38226;SDS011;24026;49.446;8.576;2022-12-05T19:09:18;130.52;;;116.28;;
38226;SDS011;24026;49.446;8.576;2022-12-05T19:11:40;132.90;;;118.32;;
38226;SDS011;24026;49.446;8.576;2022-12-05T19:14:03;131.75;;;117.60;;
38226;SDS011;24026;49.446;8.576;2022-12-05T19:16:23;132.30;;;118.07;;
38226;SDS011;24026;49.446;8.576;2022-12-05T19:18:45;131.40;;;117.40;;
38226;SDS011;24026;49.446;8.576;2022-12-05T19:21:06;130.73;;;116.47;;
38226;SDS011;24026;49.446;8.576;2022-12-05T19:23:26;132.05;;;117.85;;
38226;SDS011;24026;49.446;8.576;2022-12-05T19:25:47;132.25;;;118.05;;
38226;SDS011;24026;49.446;8.576;2022-12-05T19:28:07;130.60;;;116.40;;
38226;SDS011;24026;49.446;8.576;2022-12-05T19:30:28;131.13;;;117.00;;
38226;SDS011;24026;49.446;8.576;2022-12-05T19:32:49;130.88;;;116.80;;
38226;SDS011;24026;49.446;8.576;2022-12-05T19:35:09;131.45;;;117.28;;
38226;SDS011;24026;49.446;8.576;2022-12-05T19:37:29;131.32;;;117.18;;
38226;SDS011;24026;49.446;8.576;2022-12-05T19:39:50;131.90;;;117.63;;
38226;SDS011;24026;49.446;8.576;2022-12-05T19:42:10;132.88;;;118.65;;
38226;SDS011;24026;49.446;8.576;2022-12-05T19:44:31;130.98;;;117.13;;
38226;SDS011;24026;49.446;8.576;2022-12-05T19:46:51;129.70;;;115.80;;
38226;SDS011;24026;49.446;8.576;2022-12-05T19:49:13;130.82;;;116.55;;
38226;SDS011;24026;49.446;8.576;2022-12-05T19:51:36;130.63;;;116.68;;
38226;SDS011;24026;49.446;8.576;2022-12-05T19:53:58;130.35;;;116.63;;
38226;SDS011;24026;49.446;8.576;2022-12-05T19:56:20;130.20;;;116.25;;
38226;SDS011;24026;49.446;8.576;2022-12-05T19:58:42;128.98;;;115.07;;
38226;SDS011;24026;49.446;8.576;2022-12-05T20:03:32;129.13;;;115.43;;
38226;SDS011;24026;49.446;8.576;2022-12-05T20:05:56;128.20;;;114.55;;
38226;SDS011;24026;49.446;8.576;2022-12-05T20:08:17;129.80;;;115.75;;
38226;SDS011;24026;49.446;8.576;2022-12-05T20:10:37;129.05;;;115.15;;
38226;SDS011;24026;49.446;8.576;2022-12-05T20:12:58;128.05;;;114.38;;
38226;SDS011;24026;49.446;8.576;2022-12-05T20:15:18;129.43;;;115.60;;
38226;SDS011;24026;49.446;8.576;2022-12-05T20:17:39;129.02;;;115.20;;
38226;SDS011;24026;49.446;8.576;2022-12-05T20:19:59;128.30;;;114.40;;
38226;SDS011;24026;49.446;8.576;2022-12-05T20:22:20;129.65;;;115.65;;
38226;SDS011;24026;49.446;8.576;2022-12-05T20:24:40;128.38;;;114.70;;
38226;SDS011;24026;49.446;8.576;2022-12-05T20:27:00;127.93;;;114.13;;
38226;SDS011;24026;49.446;8.576;2022-12-05T20:29:21;127.13;;;113.63;;
38226;SDS011;24026;49.446;8.576;2022-12-05T20:31:41;127.13;;;113.47;;
38226;SDS011;24026;49.446;8.576;2022-12-05T20:34:02;127.55;;;113.85;;
38226;SDS011;24026;49.446;8.576;2022-12-05T20:36:25;127.85;;;114.10;;
38226;SDS011;24026;49.446;8.576;2022-12-05T20:38:47;127.10;;;113.30;;
38226;SDS011;24026;49.446;8.576;2022-12-05T20:41:15;128.70;;;114.90;;
38226;SDS011;24026;49.446;8.576;2022-12-05T20:43:37;126.38;;;112.85;;
38226;SDS011;24026;49.446;8.576;2022-12-05T20:46:07;129.10;;;115.30;;
38226;SDS011;24026;49.446;8.576;2022-12-05T20:48:30;127.55;;;113.60;;
38226;SDS011;24026;49.446;8.576;2022-12-05T20:50:51;127.93;;;113.78;;
38226;SDS011;24026;49.446;8.576;2022-12-05T20:53:13;127.03;;;113.53;;
38226;SDS011;24026;49.446;8.576;2022-12-05T20:55:33;127.65;;;113.85;;
38226;SDS011;24026;49.446;8.576;2022-12-05T20:57:54;128.52;;;114.85;;
38226;SDS011;24026;49.446;8.576;2022-12-05T21:00:14;128.40;;;114.78;;
38226;SDS011;24026;49.446;8.576;2022-12-05T21:02:35;127.18;;;113.55;;
38226;SDS011;24026;49.446;8.576;2022-12-05T21:04:55;127.10;;;113.35;;
38226;SDS011;24026;49.446;8.576;2022-12-05T21:07:15;127.25;;;113.65;;
38226;SDS011;24026;49.446;8.576;2022-12-05T21:09:36;130.48;;;114.90;;
38226;SDS011;24026;49.446;8.576;2022-12-05T21:11:56;127.63;;;114.07;;
38226;SDS011;24026;49.446;8.576;2022-12-05T21:14:17;127.32;;;113.53;;
38226;SDS011;24026;49.446;8.576;2022-12-05T21:16:37;127.03;;;113.32;;
38226;SDS011;24026;49.446;8.576;2022-12-05T21:18:58;127.15;;;113.65;;
38226;SDS011;24026;49.446;8.576;2022-12-05T21:21:20;125.55;;;112.10;;
38226;SDS011;24026;49.446;8.576;2022-12-05T21:23:43;126.15;;;112.57;;
38226;SDS011;24026;49.446;8.576;2022-12-05T21:26:05;126.53;;;112.93;;
38226;SDS011;24026;49.446;8.576;2022-12-05T21:28:29;126.65;;;113.18;;
38226;SDS011;24026;49.446;8.576;2022-12-05T21:30:50;127.47;;;114.00;;
38226;SDS011;24026;49.446;8.576;2022-12-05T21:33:11;127.07;;;113.45;;
38226;SDS011;24026;49.446;8.576;2022-12-05T21:35:32;126.40;;;112.82;;
38226;SDS011;24026;49.446;8.576;2022-12-05T21:37:52;127.15;;;113.65;;
38226;SDS011;24026;49.446;8.576;2022-12-05T21:40:13;127.18;;;113.60;;
38226;SDS011;24026;49.446;8.576;2022-12-05T21:42:34;126.55;;;113.07;;
38226;SDS011;24026;49.446;8.576;2022-12-05T21:44:54;127.18;;;113.70;;
38226;SDS011;24026;49.446;8.576;2022-12-05T21:47:15;126.10;;;112.70;;
38226;SDS011;24026;49.446;8.576;2022-12-05T21:49:35;125.47;;;111.95;;
38226;SDS011;24026;49.446;8.576;2022-12-05T21:51:55;126.57;;;113.03;;
38226;SDS011;24026;49.446;8.576;2022-12-05T21:54:16;126.22;;;112.85;;
38226;SDS011;24026;49.446;8.576;2022-12-05T21:56:36;126.05;;;112.63;;
38226;SDS011;24026;49.446;8.576;2022-12-05T21:58:57;127.20;;;113.70;;
38226;SDS011;24026;49.446;8.576;2022-12-05T22:01:22;128.50;;;114.90;;
38226;SDS011;24026;49.446;8.576;2022-12-05T22:03:45;127.60;;;113.95;;
38226;SDS011;24026;49.446;8.576;2022-12-05T22:06:06;128.32;;;114.43;;
38226;SDS011;24026;49.446;8.576;2022-12-05T22:08:29;127.38;;;113.63;;
38226;SDS011;24026;49.446;8.576;2022-12-05T22:10:50;128.40;;;114.68;;
38226;SDS011;24026;49.446;8.576;2022-12-05T22:13:10;128.40;;;114.70;;
38226;SDS011;24026;49.446;8.576;2022-12-05T22:15:31;128.00;;;114.35;;
38226;SDS011;24026;49.446;8.576;2022-12-05T22:17:51;127.97;;;114.18;;
38226;SDS011;24026;49.446;8.576;2022-12-05T22:20:11;127.65;;;113.97;;
38226;SDS011;24026;49.446;8.576;2022-12-05T22:22:33;126.90;;;113.30;;
38226;SDS011;24026;49.446;8.576;2022-12-05T22:24:54;127.32;;;113.57;;
38226;SDS011;24026;49.446;8.576;2022-12-05T22:27:14;126.57;;;112.97;;
38226;SDS011;24026;49.446;8.576;2022-12-05T22:29:35;126.78;;;113.25;;
38226;SDS011;24026;49.446;8.576;2022-12-05T22:31:55;127.57;;;113.75;;
38226;SDS011;24026;49.446;8.576;2022-12-05T22:34:16;126.78;;;113.07;;
38226;SDS011;24026;49.446;8.576;2022-12-05T22:36:36;124.38;;;110.68;;
38226;SDS011;24026;49.446;8.576;2022-12-05T22:38:56;125.20;;;111.70;;
38226;SDS011;24026;49.446;8.576;2022-12-05T22:41:20;124.15;;;110.72;;
38226;SDS011;24026;49.446;8.576;2022-12-05T22:43:43;125.47;;;111.97;;
38226;SDS011;24026;49.446;8.576;2022-12-05T22:46:06;123.97;;;110.57;;
38226;SDS011;24026;49.446;8.576;2022-12-05T22:48:33;123.88;;;110.57;;
38226;SDS011;24026;49.446;8.576;2022-12-05T22:50:54;124.68;;;111.20;;
38226;SDS011;24026;49.446;8.576;2022-12-05T22:53:16;124.80;;;111.43;;
38226;SDS011;24026;49.446;8.576;2022-12-05T22:55:37;124.85;;;111.53;;
38226;SDS011;24026;49.446;8.576;2022-12-05T22:57:57;124.97;;;111.47;;
38226;SDS011;24026;49.446;8.576;2022-12-05T23:00:18;124.45;;;111.07;;
38226;SDS011;24026;49.446;8.576;2022-12-05T23:02:38;125.88;;;112.30;;
38226;SDS011;24026;49.446;8.576;2022-12-05T23:04:59;124.57;;;111.22;;
38226;SDS011;24026;49.446;8.576;2022-12-05T23:07:19;125.35;;;111.95;;
38226;SDS011;24026;49.446;8.576;2022-12-05T23:09:39;123.63;;;110.22;;
38226;SDS011;24026;49.446;8.576;2022-12-05T23:12:00;124.82;;;111.43;;
38226;SDS011;24026;49.446;8.576;2022-12-05T23:14:20;124.25;;;110.80;;
38226;SDS011;24026;49.446;8.576;2022-12-05T23:16:40;124.68;;;111.28;;
38226;SDS011;24026;49.446;8.576;2022-12-05T23:19:02;124.07;;;110.68;;
38226;SDS011;24026;49.446;8.576;2022-12-05T23:21:25;124.95;;;111.47;;
38226;SDS011;24026;49.446;8.576;2022-12-05T23:23:49;123.70;;;110.32;;
38226;SDS011;24026;49.446;8.576;2022-12-05T23:26:11;124.65;;;111.30;;
38226;SDS011;24026;49.446;8.576;2022-12-05T23:28:32;124.72;;;111.47;;
38226;SDS011;24026;49.446;8.576;2022-12-05T23:30:53;124.43;;;111.15;;
38226;SDS011;24026;49.446;8.576;2022-12-05T23:33:13;124.18;;;110.75;;
38226;SDS011;24026;49.446;8.576;2022-12-05T23:35:34;123.32;;;110.05;;
38226;SDS011;24026;49.446;8.576;2022-12-05T23:37:54;124.03;;;110.78;;
38226;SDS011;24026;49.446;8.576;2022-12-05T23:40:15;124.35;;;110.85;;
38226;SDS011;24026;49.446;8.576;2022-12-05T23:42:36;124.10;;;110.82;;
38226;SDS011;24026;49.446;8.576;2022-12-05T23:44:56;124.90;;;111.40;;
38226;SDS011;24026;49.446;8.576;2022-12-05T23:47:16;123.32;;;110.13;;
38226;SDS011;24026;49.446;8.576;2022-12-05T23:49:37;123.45;;;110.13;;
38226;SDS011;24026;49.446;8.576;2022-12-05T23:51:57;124.47;;;111.20;;
38226;SDS011;24026;49.446;8.576;2022-12-05T23:54:17;124.18;;;110.95;;
38226;SDS011;24026;49.446;8.576;2022-12-05T23:56:39;124.38;;;111.07;;
38226;SDS011;24026;49.446;8.576;2022-12-05T23:59:00;123.90;;;110.53;;
